Time;durP1;ratioP1;P1;durP2;ratioP2;P2;SDS_P1;SDS_P2;PMS_P1;PMS_P2;Temp;Humidity;BMP_temperature;BMP_pressure;BME280_temperature;BME280_humidity;BME280_pressure;Samples;Min_cycle;Max_cycle;Signal;HPM_P1;HPM_P2
2021/05/08 00:02:20;;;;;;;15.65;14.15;;;24.90;58.40;;;;;;5065798;28;20071;-57
2021/05/08 00:04:46;;;;;;;19.65;16.20;;;24.90;58.40;;;;;;5063870;28;20037;-57
2021/05/08 00:07:12;;;;;;;18.90;17.02;;;24.90;58.50;;;;;;5063487;28;20541;-57
2021/05/08 00:09:38;;;;;;;17.75;15.77;;;24.90;58.50;;;;;;5063133;28;20056;-57
2021/05/08 00:12:04;;;;;;;16.50;14.98;;;24.90;58.50;;;;;;5063607;28;20043;-57
2021/05/08 00:14:30;;;;;;;17.63;15.85;;;24.90;58.40;;;;;;5061376;28;20378;-57
2021/05/08 00:16:56;;;;;;;18.33;16.08;;;24.90;58.40;;;;;;5063831;28;20028;-58
2021/05/08 00:19:23;;;;;;;19.23;15.05;;;24.90;58.50;;;;;;5051871;28;20036;-58
2021/05/08 00:21:49;;;;;;;22.10;19.80;;;24.90;58.50;;;;;;5063510;28;20025;-57
2021/05/08 00:24:15;;;;;;;21.08;18.77;;;24.90;58.50;;;;;;5072643;28;20048;-57
2021/05/08 00:26:41;;;;;;;18.85;17.10;;;24.90;58.50;;;;;;5086467;28;20044;-58
2021/05/08 00:29:07;;;;;;;17.33;15.60;;;24.90;58.40;;;;;;5072305;28;20504;-57
2021/05/08 00:31:33;;;;;;;18.25;16.55;;;24.80;58.30;;;;;;5072151;28;20044;-57
2021/05/08 00:33:59;;;;;;;20.88;18.67;;;24.90;58.30;;;;;;5072581;28;20072;-58
2021/05/08 00:36:26;;;;;;;17.88;15.98;;;24.90;58.20;;;;;;5072098;28;20040;-57
2021/05/08 00:38:52;;;;;;;16.20;14.60;;;24.90;58.20;;;;;;5071596;28;20049;-56
2021/05/08 00:41:18;;;;;;;16.00;14.48;;;24.80;58.00;;;;;;5054103;28;20058;-57
2021/05/08 00:43:45;;;;;;;16.08;14.45;;;24.70;58.00;;;;;;5053579;28;20028;-56
2021/05/08 00:46:13;;;;;;;14.20;12.82;;;24.80;57.80;;;;;;5071936;28;20343;-57
2021/05/08 00:48:40;;;;;;;15.23;13.55;;;24.80;57.70;;;;;;5071249;28;20036;-56
2021/05/08 00:51:06;;;;;;;13.93;12.52;;;24.80;57.70;;;;;;5070138;28;20509;-57
2021/05/08 00:53:32;;;;;;;14.75;13.32;;;24.80;57.40;;;;;;5053552;28;20040;-58
2021/05/08 00:55:58;;;;;;;14.05;12.52;;;24.80;57.20;;;;;;5070188;28;20036;-57
2021/05/08 00:58:25;;;;;;;16.40;12.18;;;24.80;56.70;;;;;;5070873;28;20064;-57
2021/05/08 01:00:55;;;;;;;12.82;11.18;;;24.80;56.30;;;;;;5071012;28;20040;-57
2021/05/08 01:03:24;;;;;;;12.25;10.90;;;24.70;56.20;;;;;;5036636;28;20787;-57
2021/05/08 01:05:52;;;;;;;14.27;10.77;;;24.70;56.30;;;;;;5044503;28;20051;-57
2021/05/08 01:08:18;;;;;;;11.07;8.55;;;24.70;56.60;;;;;;5054068;28;20036;-57
2021/05/08 01:10:45;;;;;;;11.23;10.13;;;24.70;55.70;;;;;;5037687;28;20064;-57
2021/05/08 01:13:12;;;;;;;10.20;9.13;;;24.70;55.90;;;;;;5053204;28;20482;-57
2021/05/08 01:15:39;;;;;;;11.70;8.68;;;24.70;56.10;;;;;;5053410;28;20032;-57
2021/05/08 01:18:07;;;;;;;9.63;8.73;;;24.70;55.20;;;;;;5054341;28;20042;-57
2021/05/08 01:20:33;;;;;;;10.25;8.82;;;24.60;55.80;;;;;;5053697;28;20090;-57
2021/05/08 01:23:02;;;;;;;10.43;8.73;;;24.60;55.80;;;;;;5053814;28;20485;-57
2021/05/08 01:25:28;;;;;;;9.70;8.73;;;24.60;56.10;;;;;;5071109;28;20093;-57
2021/05/08 01:27:58;;;;;;;13.73;10.23;;;24.60;55.80;;;;;;5071995;28;20128;-57
2021/05/08 01:30:32;;;;;;;12.07;10.85;;;24.60;55.60;;;;;;5052558;28;20055;-57
2021/05/08 01:33:01;;;;;;;9.32;8.48;;;24.60;55.50;;;;;;5087609;28;20398;-57
2021/05/08 01:35:29;;;;;;;10.45;8.60;;;24.60;55.90;;;;;;5071747;28;20075;-58
2021/05/08 01:37:55;;;;;;;12.75;9.45;;;24.50;56.10;;;;;;5054242;28;20040;-57
2021/05/08 01:40:39;;;;;;;13.40;11.35;;;24.50;56.10;;;;;;5072306;28;20472;-57
2021/05/08 01:43:11;;;;;;;10.75;9.13;;;24.50;56.10;;;;;;5054071;28;20037;-57
2021/05/08 01:45:38;;;;;;;10.82;8.75;;;24.50;56.10;;;;;;5071467;28;20052;-57
2021/05/08 01:48:09;;;;;;;14.30;12.75;;;24.50;56.40;;;;;;5053605;28;20066;-57
2021/05/08 01:50:35;;;;;;;14.93;10.38;;;24.50;56.00;;;;;;5071425;28;20040;-57
2021/05/08 01:53:02;;;;;;;12.60;11.30;;;24.50;56.30;;;;;;5071627;28;20450;-56
2021/05/08 01:55:29;;;;;;;12.80;11.50;;;24.50;56.20;;;;;;5053628;28;20044;-56
2021/05/08 01:58:00;;;;;;;13.70;10.65;;;24.40;56.20;;;;;;5071341;28;20119;-57
2021/05/08 02:00:41;;;;;;;13.05;10.05;;;24.50;56.40;;;;;;5071062;28;20101;-57
2021/05/08 02:03:08;;;;;;;12.88;10.55;;;24.50;56.60;;;;;;5070809;28;20036;-57
2021/05/08 02:05:39;;;;;;;11.65;9.95;;;24.50;56.60;;;;;;5071258;28;20040;-57
2021/05/08 02:08:11;;;;;;;13.15;10.95;;;24.50;56.60;;;;;;5053063;28;20542;-57
2021/05/08 02:10:40;;;;;;;12.52;11.25;;;24.50;56.70;;;;;;5070842;28;20044;-57
2021/05/08 02:13:07;;;;;;;12.50;11.23;;;24.40;56.60;;;;;;5053166;28;20398;-57
2021/05/08 02:15:34;;;;;;;13.57;11.60;;;24.40;56.60;;;;;;5052946;28;20385;-57
2021/05/08 02:18:04;;;;;;;18.02;13.20;;;24.40;56.50;;;;;;5052577;28;20039;-57
2021/05/08 02:20:32;;;;;;;12.57;11.18;;;24.50;56.60;;;;;;5085930;28;20062;-57
2021/05/08 02:23:01;;;;;;;16.30;13.90;;;24.40;56.60;;;;;;5071055;28;20067;-57
2021/05/08 02:25:28;;;;;;;12.60;11.30;;;24.40;56.60;;;;;;5071180;28;20490;-57
2021/05/08 02:27:55;;;;;;;12.63;11.35;;;24.40;56.70;;;;;;5070946;28;20078;-57
2021/05/08 02:30:30;;;;;;;13.07;11.77;;;24.40;56.70;;;;;;5070987;28;20045;-57
2021/05/08 02:32:57;;;;;;;12.63;10.30;;;24.40;56.70;;;;;;5071153;28;20047;-58
2021/05/08 02:35:26;;;;;;;14.30;12.90;;;24.30;56.60;;;;;;5052830;28;20052;-57
2021/05/08 02:37:53;;;;;;;15.05;10.80;;;24.30;56.40;;;;;;5092204;28;20047;-57
2021/05/08 02:40:23;;;;;;;14.43;12.48;;;24.30;56.50;;;;;;5077345;28;20040;-57
2021/05/08 02:42:49;;;;;;;15.13;13.63;;;24.40;56.30;;;;;;5077220;28;20041;-57
2021/05/08 02:45:17;;;;;;;16.42;12.65;;;24.40;56.10;;;;;;5077117;28;20468;-57
2021/05/08 02:47:45;;;;;;;17.08;13.40;;;24.30;55.80;;;;;;5077695;28;20063;-57
2021/05/08 02:50:15;;;;;;;15.00;12.60;;;24.30;55.80;;;;;;5093044;28;20048;-57
2021/05/08 02:52:41;;;;;;;11.68;10.55;;;24.30;56.00;;;;;;5093067;28;20508;-57
2021/05/08 02:55:09;;;;;;;12.50;10.90;;;24.30;56.00;;;;;;5077292;28;20501;-57
2021/05/08 02:57:37;;;;;;;12.32;11.02;;;24.20;55.80;;;;;;5077371;28;20140;-57
2021/05/08 03:00:09;;;;;;;13.52;10.20;;;24.20;55.90;;;;;;5059439;28;20567;-57
2021/05/08 03:02:36;;;;;;;12.05;10.57;;;24.20;56.10;;;;;;5077475;28;20059;-57
2021/05/08 03:05:04;;;;;;;16.65;9.90;;;24.20;55.80;;;;;;5093230;28;20032;-57
2021/05/08 03:07:30;;;;;;;11.70;10.50;;;24.20;55.90;;;;;;5059390;28;20040;-56
2021/05/08 03:09:57;;;;;;;12.57;11.38;;;24.10;56.50;;;;;;5092596;28;20375;-57
2021/05/08 03:12:23;;;;;;;12.25;10.85;;;24.20;55.80;;;;;;5077333;28;20054;-57
2021/05/08 03:14:49;;;;;;;9.82;8.90;;;24.10;56.00;;;;;;5058867;28;20043;-57
2021/05/08 03:17:17;;;;;;;16.48;12.40;;;24.20;56.30;;;;;;5058708;28;20035;-57
2021/05/08 03:19:48;;;;;;;18.60;14.23;;;24.10;55.90;;;;;;5059138;28;20040;-57
2021/05/08 03:22:14;;;;;;;19.42;14.65;;;24.10;55.70;;;;;;5077241;28;20036;-57
2021/05/08 03:24:41;;;;;;;17.40;13.35;;;24.10;55.50;;;;;;5077367;28;20119;-56
2021/05/08 03:27:07;;;;;;;16.50;12.65;;;24.10;55.40;;;;;;5059493;28;20439;-56
2021/05/08 03:29:34;;;;;;;15.52;12.35;;;24.10;55.50;;;;;;5059285;28;20041;-56
2021/05/08 03:32:00;;;;;;;13.02;10.48;;;24.00;55.50;;;;;;5077377;28;20058;-56
2021/05/08 03:34:26;;;;;;;12.93;10.50;;;24.00;55.50;;;;;;5058882;28;20048;-57
2021/05/08 03:36:53;;;;;;;11.57;10.00;;;24.00;55.80;;;;;;5076865;28;20476;-56
2021/05/08 03:39:22;;;;;;;16.10;11.70;;;24.00;55.80;;;;;;5059350;28;20067;-58
2021/05/08 03:41:47;;;;;;;10.93;9.25;;;24.00;55.40;;;;;;5059436;28;20389;-57
2021/05/08 03:44:13;;;;;;;13.00;9.90;;;23.90;55.90;;;;;;5077081;28;20036;-57
2021/05/08 03:46:39;;;;;;;11.68;8.73;;;23.90;56.20;;;;;;5077170;28;20044;-57
2021/05/08 03:49:06;;;;;;;13.30;10.15;;;23.90;56.30;;;;;;5073802;28;20815;-57
2021/05/08 03:51:32;;;;;;;10.43;9.30;;;24.00;55.40;;;;;;5073910;28;20040;-57
2021/05/08 03:53:58;;;;;;;13.20;8.55;;;23.90;55.50;;;;;;5073445;28;20075;-58
2021/05/08 03:56:24;;;;;;;9.50;8.32;;;23.90;55.60;;;;;;5073659;28;20044;-57
2021/05/08 03:58:51;;;;;;;12.93;9.50;;;23.90;55.50;;;;;;5073622;28;20032;-57
2021/05/08 04:01:17;;;;;;;12.43;9.32;;;24.00;55.30;;;;;;5055957;28;20037;-57
2021/05/08 04:03:43;;;;;;;12.40;9.45;;;23.90;55.20;;;;;;5073741;28;20037;-57
2021/05/08 04:06:09;;;;;;;8.52;7.65;;;23.90;55.10;;;;;;5055292;28;20033;-57
2021/05/08 04:08:35;;;;;;;9.93;8.25;;;23.90;55.10;;;;;;5073439;28;20040;-57
2021/05/08 04:11:01;;;;;;;7.40;6.70;;;23.90;55.40;;;;;;5073693;28;20091;-57
2021/05/08 04:13:27;;;;;;;10.43;8.48;;;23.80;55.40;;;;;;5072854;28;20048;-57
2021/05/08 04:15:53;;;;;;;9.52;8.35;;;23.90;55.10;;;;;;5073600;28;20094;-57
2021/05/08 04:18:19;;;;;;;10.05;8.52;;;23.90;54.40;;;;;;5073434;28;20037;-57
2021/05/08 04:20:45;;;;;;;10.48;7.80;;;23.80;54.40;;;;;;5055088;28;20434;-57
2021/05/08 04:23:12;;;;;;;8.75;7.45;;;23.70;54.60;;;;;;5055524;28;20102;-57
2021/05/08 04:25:38;;;;;;;11.52;7.93;;;23.70;54.70;;;;;;5073266;28;20037;-57
2021/05/08 04:28:08;;;;;;;9.15;7.50;;;23.70;54.70;;;;;;5073192;28;20040;-57
2021/05/08 04:30:34;;;;;;;9.55;6.82;;;23.70;54.50;;;;;;5053360;28;20040;-57
2021/05/08 04:33:00;;;;;;;8.82;6.95;;;23.70;54.60;;;;;;5053216;28;20037;-57
2021/05/08 04:35:26;;;;;;;10.57;7.03;;;23.70;54.40;;;;;;5037089;28;20484;-57
2021/05/08 04:37:52;;;;;;;11.30;7.55;;;23.70;54.40;;;;;;5073082;28;20400;-57
2021/05/08 04:40:18;;;;;;;8.52;6.63;;;23.60;54.60;;;;;;5073047;28;20090;-56
2021/05/08 04:42:44;;;;;;;9.57;6.22;;;23.70;54.50;;;;;;5072928;28;20039;-57
2021/05/08 04:45:10;;;;;;;7.50;5.95;;;23.60;54.40;;;;;;5072840;28;20113;-57
2021/05/08 04:47:36;;;;;;;7.75;6.35;;;23.60;54.50;;;;;;5072749;28;20469;-57
2021/05/08 04:50:04;;;;;;;6.30;5.70;;;23.60;55.00;;;;;;5054565;28;20040;-56
2021/05/08 04:52:30;;;;;;;8.45;6.57;;;23.60;54.90;;;;;;5073014;28;20044;-57
2021/05/08 04:54:56;;;;;;;10.07;6.18;;;23.60;54.40;;;;;;5054846;28;20124;-57
2021/05/08 04:57:22;;;;;;;6.55;5.60;;;23.60;54.50;;;;;;5072087;28;20702;-57
2021/05/08 04:59:48;;;;;;;7.10;5.82;;;23.60;55.40;;;;;;5071282;28;20036;-58
2021/05/08 05:02:14;;;;;;;6.97;5.80;;;23.60;54.50;;;;;;5072795;28;20769;-56
2021/05/08 05:04:40;;;;;;;7.22;5.82;;;23.60;54.60;;;;;;5072731;28;20090;-57
2021/05/08 05:07:06;;;;;;;8.55;5.55;;;23.60;54.70;;;;;;5072762;28;20032;-57
2021/05/08 05:09:33;;;;;;;10.73;6.10;;;23.70;54.80;;;;;;5072532;28;20164;-57
2021/05/08 05:12:00;;;;;;;8.43;5.63;;;23.70;54.40;;;;;;5054810;28;20094;-57
2021/05/08 05:14:27;;;;;;;7.25;5.30;;;23.60;54.30;;;;;;5072535;28;20040;-57
2021/05/08 05:16:53;;;;;;;7.13;5.43;;;23.70;54.40;;;;;;5072995;28;20041;-57
2021/05/08 05:19:19;;;;;;;7.32;5.63;;;23.70;54.20;;;;;;5072775;28;20124;-58
2021/05/08 05:21:45;;;;;;;11.15;6.03;;;23.70;53.90;;;;;;5054490;28;20185;-57
2021/05/08 05:24:11;;;;;;;6.40;5.28;;;23.70;53.70;;;;;;5072531;28;20490;-57
2021/05/08 05:26:38;;;;;;;5.75;4.68;;;23.70;53.90;;;;;;5072357;28;20062;-57
2021/05/08 05:29:06;;;;;;;5.97;4.57;;;23.70;53.70;;;;;;5054348;28;20366;-58
2021/05/08 05:31:32;;;;;;;6.53;4.75;;;23.70;53.90;;;;;;5072201;28;20126;-57
2021/05/08 05:33:58;;;;;;;9.23;5.03;;;23.70;53.70;;;;;;5072155;28;20037;-58
2021/05/08 05:36:24;;;;;;;7.32;4.82;;;23.70;53.50;;;;;;5071588;28;20044;-58
2021/05/08 05:38:49;;;;;;;7.25;4.63;;;23.60;53.50;;;;;;5072099;28;20028;-57
2021/05/08 05:41:15;;;;;;;5.50;4.15;;;23.70;53.40;;;;;;5054341;28;20039;-57
2021/05/08 05:43:41;;;;;;;7.05;4.93;;;23.70;53.50;;;;;;5071986;28;20053;-57
2021/05/08 05:46:07;;;;;;;11.27;5.20;;;23.60;53.50;;;;;;5072026;28;20470;-56
2021/05/08 05:48:33;;;;;;;11.05;5.22;;;23.70;52.60;;;;;;5072055;28;20085;-57
2021/05/08 05:50:59;;;;;;;5.07;4.65;;;23.60;53.00;;;;;;5071877;28;20071;-56
2021/05/08 05:53:25;;;;;;;6.18;4.43;;;23.60;53.40;;;;;;5053958;28;20060;-57
2021/05/08 05:55:51;;;;;;;6.38;5.00;;;23.60;53.30;;;;;;5072173;28;20059;-57
2021/05/08 05:58:17;;;;;;;8.30;5.25;;;23.60;52.80;;;;;;5054189;28;20063;-56
2021/05/08 06:00:43;;;;;;;7.82;4.95;;;23.60;52.90;;;;;;5072057;28;20045;-56
2021/05/08 06:03:09;;;;;;;10.10;5.55;;;23.70;53.20;;;;;;5073128;28;20124;-56
2021/05/08 06:05:35;;;;;;;5.65;4.57;;;23.60;52.70;;;;;;5069293;28;20115;-56
2021/05/08 06:08:01;;;;;;;7.70;4.97;;;23.70;53.30;;;;;;5070067;28;20044;-57
2021/05/08 06:10:27;;;;;;;8.18;4.65;;;23.60;53.30;;;;;;5071373;28;20064;-56
2021/05/08 06:12:53;;;;;;;11.07;5.60;;;23.70;53.40;;;;;;5070860;28;20036;-56
2021/05/08 06:15:19;;;;;;;7.53;4.50;;;23.70;53.00;;;;;;5071379;28;20425;-56
2021/05/08 06:17:45;;;;;;;7.28;5.20;;;23.70;53.10;;;;;;5071613;28;20029;-56
2021/05/08 06:20:11;;;;;;;9.10;5.38;;;23.70;52.70;;;;;;5071533;28;20482;-56
2021/05/08 06:22:37;;;;;;;8.13;5.70;;;23.70;52.80;;;;;;5071335;28;20036;-56
2021/05/08 06:25:04;;;;;;;9.10;7.00;;;23.60;52.10;;;;;;5070971;28;20044;-57
2021/05/08 06:27:30;;;;;;;10.57;8.43;;;23.70;52.30;;;;;;5071445;28;20044;-56
2021/05/08 06:29:56;;;;;;;13.25;8.10;;;23.70;52.30;;;;;;5071060;28;20035;-56
2021/05/08 06:32:22;;;;;;;8.65;7.00;;;23.70;52.40;;;;;;5070957;28;20079;-56
2021/05/08 06:34:49;;;;;;;8.10;6.60;;;23.70;53.00;;;;;;5070753;28;20059;-56
2021/05/08 06:37:15;;;;;;;9.02;7.10;;;23.70;52.30;;;;;;5052655;28;20055;-56
2021/05/08 06:39:41;;;;;;;8.27;7.18;;;23.60;52.30;;;;;;5070899;28;20025;-56
2021/05/08 06:42:08;;;;;;;10.95;6.15;;;23.70;52.30;;;;;;5070879;28;20052;-56
2021/05/08 06:44:34;;;;;;;8.13;6.22;;;23.80;51.90;;;;;;5069794;28;20032;-56
2021/05/08 06:47:00;;;;;;;11.00;5.55;;;23.70;51.90;;;;;;5070824;28;20098;-56
2021/05/08 06:49:26;;;;;;;8.75;5.10;;;23.70;52.10;;;;;;5070342;28;20054;-56
2021/05/08 06:51:52;;;;;;;8.98;5.97;;;23.70;52.20;;;;;;5069897;28;20048;-56
2021/05/08 06:54:18;;;;;;;10.43;5.78;;;23.70;52.10;;;;;;5086835;28;20478;-56
2021/05/08 06:56:44;;;;;;;7.15;5.25;;;23.70;52.50;;;;;;5070439;28;20048;-56
2021/05/08 06:59:11;;;;;;;8.70;5.40;;;23.70;52.00;;;;;;5071106;28;20043;-55
2021/05/08 07:01:37;;;;;;;9.23;5.15;;;23.80;52.10;;;;;;5069588;28;20033;-56
2021/05/08 07:04:03;;;;;;;14.25;6.30;;;23.70;51.90;;;;;;5041667;28;20044;-57
2021/05/08 07:06:29;;;;;;;14.88;5.93;;;23.70;51.90;;;;;;5060315;28;20035;-56
2021/05/08 07:08:55;;;;;;;10.70;5.32;;;23.80;51.90;;;;;;5051094;28;20049;-56
2021/05/08 07:11:21;;;;;;;14.95;5.70;;;23.80;51.80;;;;;;5085802;28;20110;-56
2021/05/08 07:13:47;;;;;;;8.25;5.07;;;23.90;51.70;;;;;;5070913;28;20033;-56
2021/05/08 07:16:14;;;;;;;7.35;4.70;;;23.90;51.70;;;;;;5070266;28;20044;-56
2021/05/08 07:18:39;;;;;;;8.80;6.00;;;23.90;51.60;;;;;;5052141;28;20067;-56
2021/05/08 07:21:06;;;;;;;11.77;6.05;;;23.90;51.40;;;;;;5070137;28;20044;-57
2021/05/08 07:23:32;;;;;;;5.88;4.65;;;23.90;51.30;;;;;;5072194;28;20037;-56
2021/05/08 07:25:58;;;;;;;15.52;5.65;;;24.00;51.40;;;;;;5074388;28;20060;-56
2021/05/08 07:28:25;;;;;;;8.38;5.10;;;24.00;51.30;;;;;;5074577;28;20044;-57
2021/05/08 07:30:53;;;;;;;8.00;4.75;;;24.00;51.10;;;;;;5074346;28;20500;-57
2021/05/08 07:33:21;;;;;;;11.15;5.60;;;24.10;51.20;;;;;;5075044;28;20036;-55
2021/05/08 07:35:49;;;;;;;10.68;5.15;;;24.10;51.10;;;;;;5073554;28;20048;-55
2021/05/08 07:38:16;;;;;;;9.38;4.90;;;24.10;51.00;;;;;;5055848;28;20494;-55
2021/05/08 07:40:42;;;;;;;7.72;4.75;;;24.20;50.80;;;;;;5074524;28;20486;-55
2021/05/08 07:43:09;;;;;;;11.40;5.57;;;24.20;50.80;;;;;;5072183;28;20039;-55
2021/05/08 07:45:37;;;;;;;9.98;5.00;;;24.30;50.80;;;;;;5073592;28;20040;-55
2021/05/08 07:48:04;;;;;;;10.57;5.15;;;24.30;50.70;;;;;;5074097;28;20407;-52
2021/05/08 07:50:30;;;;;;;25.73;6.47;;;24.30;50.70;;;;;;5074667;28;20037;-52
2021/05/08 07:52:56;;;;;;;10.88;5.78;;;24.30;50.70;;;;;;5074223;28;20107;-52
2021/05/08 07:55:23;;;;;;;7.30;4.82;;;24.30;50.80;;;;;;5074847;28;20036;-52
2021/05/08 07:57:50;;;;;;;10.93;6.70;;;24.30;50.80;;;;;;5075114;28;20471;-51
2021/05/08 08:00:18;;;;;;;14.82;7.18;;;24.30;50.80;;;;;;5072012;28;20055;-56
2021/05/08 08:02:44;;;;;;;15.02;10.80;;;24.30;50.60;;;;;;5073042;28;21390;-56
2021/05/08 08:05:11;;;;;;;12.45;9.90;;;24.30;50.80;;;;;;5054330;28;20086;-56
2021/05/08 08:07:37;;;;;;;12.43;7.03;;;24.30;50.70;;;;;;5072206;28;20032;-55
2021/05/08 08:10:05;;;;;;;55.25;12.10;;;24.30;50.60;;;;;;5071241;28;20041;-59
2021/05/08 08:12:31;;;;;;;32.65;18.27;;;24.40;50.70;;;;;;5073271;28;20142;-59
2021/05/08 08:14:57;;;;;;;29.50;20.20;;;24.50;50.70;;;;;;5054759;28;20048;-59
2021/05/08 08:17:23;;;;;;;25.20;19.63;;;24.50;50.50;;;;;;5072491;28;20041;-59
2021/05/08 08:19:50;;;;;;;29.52;21.35;;;24.50;50.50;;;;;;5038822;28;20124;-59
2021/05/08 08:22:17;;;;;;;36.05;32.17;;;24.50;50.50;;;;;;5056980;28;20111;-59
2021/05/08 08:24:43;;;;;;;38.67;33.40;;;24.60;50.50;;;;;;5072989;28;20074;-59
2021/05/08 08:27:11;;;;;;;54.60;49.05;;;24.60;50.40;;;;;;5072193;28;20142;-60
2021/05/08 08:29:38;;;;;;;51.15;45.72;;;24.60;50.20;;;;;;5073358;28;20099;-59
2021/05/08 08:32:06;;;;;;;43.53;38.97;;;24.70;50.00;;;;;;5072442;28;20043;-59
2021/05/08 08:34:32;;;;;;;39.08;35.08;;;24.70;49.90;;;;;;5072668;28;20070;-59
2021/05/08 08:36:58;;;;;;;20.55;18.05;;;24.80;49.90;;;;;;5072651;28;20098;-60
2021/05/08 08:39:24;;;;;;;19.23;16.10;;;24.80;49.70;;;;;;5073153;28;20058;-59
2021/05/08 08:41:54;;;;;;;12.82;10.13;;;24.80;49.50;;;;;;5069989;28;20441;-59
2021/05/08 08:44:20;;;;;;;11.45;8.98;;;24.90;48.90;;;;;;5072914;28;20090;-59
2021/05/08 08:46:47;;;;;;;15.57;9.85;;;24.90;48.80;;;;;;5072471;28;20377;-61
2021/05/08 08:49:15;;;;;;;10.95;5.90;;;24.90;49.00;;;;;;5052736;28;20075;-59
2021/05/08 08:51:42;;;;;;;7.72;4.55;;;25.00;47.50;;;;;;5073720;28;20032;-58
2021/05/08 08:54:09;;;;;;;8.52;5.93;;;25.10;47.50;;;;;;5072839;28;20123;-59
2021/05/08 08:56:39;;;;;;;8.13;4.15;;;25.10;48.10;;;;;;5073710;28;20036;-58
2021/05/08 08:59:30;;;;;;;8.35;3.88;;;25.20;47.90;;;;;;5073637;28;20037;-58
2021/05/08 09:01:56;;;;;;;2.90;2.22;;;25.30;47.40;;;;;;5054929;28;20043;-61
2021/05/08 09:04:23;;;;;;;5.30;2.20;;;25.40;46.60;;;;;;5071731;28;20104;-64
2021/05/08 09:06:49;;;;;;;2.88;1.70;;;25.40;42.70;;;;;;5063034;28;20071;-62
2021/05/08 09:09:17;;;;;;;4.68;1.90;;;25.40;40.70;;;;;;5071521;28;20558;-62
2021/05/08 09:11:52;;;;;;;4.50;2.17;;;25.50;40.70;;;;;;5054595;28;20033;-63
2021/05/08 09:14:26;;;;;;;4.20;2.17;;;25.50;40.70;;;;;;5054139;28;20094;-62
2021/05/08 09:17:13;;;;;;;6.40;2.28;;;25.60;40.80;;;;;;5071118;28;20078;-62
2021/05/08 09:19:54;;;;;;;7.40;2.47;;;25.70;41.90;;;;;;5071063;28;20453;-62
2021/05/08 09:22:29;;;;;;;4.57;2.00;;;25.90;40.20;;;;;;5052401;28;20039;-63
2021/05/08 09:24:59;;;;;;;5.35;2.78;;;25.90;40.80;;;;;;5053835;28;20063;-60
2021/05/08 09:27:41;;;;;;;4.35;1.90;;;26.00;39.20;;;;;;5048601;28;20042;-61
2021/05/08 09:30:08;;;;;;;3.95;2.95;;;25.90;39.40;;;;;;5070452;28;20040;-60
2021/05/08 09:32:44;;;;;;;7.80;2.35;;;25.90;39.90;;;;;;5071172;28;20098;-61
2021/05/08 09:35:15;;;;;;;4.88;2.42;;;25.80;40.30;;;;;;5069224;28;20049;-61
2021/05/08 09:37:41;;;;;;;7.75;2.35;;;25.80;40.30;;;;;;5071966;28;20037;-61
2021/05/08 09:40:26;;;;;;;4.60;2.17;;;26.00;40.50;;;;;;5071654;28;20114;-61
2021/05/08 09:42:54;;;;;;;5.57;1.80;;;26.00;40.40;;;;;;5052183;28;20043;-61
2021/05/08 09:45:22;;;;;;;4.10;1.85;;;26.00;40.20;;;;;;5070865;28;20041;-61
2021/05/08 09:47:48;;;;;;;4.35;2.03;;;26.00;41.00;;;;;;5052360;28;20167;-60
2021/05/08 09:50:19;;;;;;;7.85;2.10;;;26.10;41.20;;;;;;5067473;28;20126;-60
2021/05/08 09:52:50;;;;;;;3.88;1.92;;;26.20;40.40;;;;;;5070743;28;20098;-61
2021/05/08 09:55:18;;;;;;;4.82;1.83;;;26.20;38.60;;;;;;5068017;28;20101;-60
2021/05/08 09:58:06;;;;;;;3.25;1.98;;;26.20;38.60;;;;;;5051487;28;20067;-60
2021/05/08 10:00:37;;;;;;;3.75;1.92;;;26.20;39.00;;;;;;5076407;28;20028;-61
2021/05/08 10:03:06;;;;;;;5.15;2.90;;;26.20;39.00;;;;;;5087890;28;20140;-60
2021/05/08 10:05:34;;;;;;;6.25;2.22;;;26.40;38.30;;;;;;5069399;28;20553;-60
2021/05/08 10:08:00;;;;;;;3.92;2.38;;;26.40;38.00;;;;;;5071365;28;20044;-60
2021/05/08 10:10:27;;;;;;;5.03;1.95;;;26.40;38.50;;;;;;5071114;28;20111;-60
2021/05/08 10:12:54;;;;;;;3.65;2.10;;;26.50;38.90;;;;;;5085387;28;20166;-61
2021/05/08 10:15:20;;;;;;;5.90;3.08;;;26.50;38.90;;;;;;5078328;28;20051;-58
2021/05/08 10:17:51;;;;;;;5.60;2.80;;;26.40;39.30;;;;;;5071717;28;20121;-60
2021/05/08 10:20:20;;;;;;;7.80;2.80;;;26.40;39.90;;;;;;5070723;28;20071;-61
2021/05/08 10:22:49;;;;;;;9.23;2.80;;;26.40;40.00;;;;;;5071190;28;20036;-61
2021/05/08 10:25:15;;;;;;;5.72;2.55;;;26.40;40.70;;;;;;5071236;28;20059;-61
2021/05/08 10:27:42;;;;;;;3.70;2.40;;;26.40;40.30;;;;;;5071678;28;20354;-58
2021/05/08 10:30:11;;;;;;;4.47;2.60;;;26.60;40.10;;;;;;5071191;28;20040;-58
2021/05/08 10:32:39;;;;;;;6.40;3.22;;;26.70;40.40;;;;;;5079444;28;20572;-58
2021/05/08 10:35:07;;;;;;;3.92;2.55;;;26.60;40.60;;;;;;5071237;28;20145;-58
2021/05/08 10:37:34;;;;;;;5.55;2.78;;;26.60;41.00;;;;;;5071941;28;20043;-58
2021/05/08 10:40:04;;;;;;;3.33;2.58;;;26.60;41.60;;;;;;5071728;28;20029;-61
2021/05/08 10:42:30;;;;;;;;;;;26.50;41.80;;;;;;5063555;28;20492;-62
2021/05/08 10:45:00;;;;;;;5.57;2.65;;;26.40;42.20;;;;;;5070084;28;20002;-61
2021/05/08 10:48:03;;;;;;;9.35;3.95;;;26.50;42.40;;;;;;5070562;28;20090;-62
2021/05/08 10:50:36;;;;;;;10.07;3.67;;;26.40;42.20;;;;;;5053194;28;20086;-60
2021/05/08 10:53:13;;;;;;;6.50;2.90;;;26.30;42.50;;;;;;5070339;28;20067;-59
2021/05/08 10:55:57;;;;;;;6.30;3.78;;;26.40;43.10;;;;;;5085939;28;20132;-56
2021/05/08 10:58:23;;;;;;;6.50;4.05;;;26.50;43.10;;;;;;5073084;28;20036;-57
2021/05/08 11:00:50;;;;;;;4.57;3.40;;;26.70;43.20;;;;;;5074176;28;20029;-57
2021/05/08 11:03:18;;;;;;;6.70;3.45;;;26.90;43.30;;;;;;5073635;28;20090;-58
2021/05/08 11:06:04;;;;;;;7.90;3.28;;;26.90;43.30;;;;;;5075177;28;20040;-58
2021/05/08 11:08:30;;;;;;;4.95;3.25;;;27.10;43.30;;;;;;5066139;28;20033;-56
2021/05/08 11:11:17;;;;;;;8.27;3.33;;;27.20;43.30;;;;;;5073432;28;20043;-56
2021/05/08 11:13:43;;;;;;;4.20;2.97;;;27.30;43.20;;;;;;5074639;28;20040;-56
2021/05/08 11:16:18;;;;;;;5.32;3.42;;;27.40;43.30;;;;;;5056090;28;20524;-57
2021/05/08 11:18:49;;;;;;;6.03;3.13;;;27.40;43.20;;;;;;5056227;28;20063;-56
2021/05/08 11:21:16;;;;;;;7.47;3.45;;;27.50;43.10;;;;;;5074737;28;20127;-58
2021/05/08 11:23:48;;;;;;;5.95;3.05;;;27.60;43.20;;;;;;5073290;28;20031;-58
2021/05/08 11:26:24;;;;;;;5.82;3.10;;;27.60;43.10;;;;;;5071637;28;20040;-58
2021/05/08 11:28:59;;;;;;;7.20;3.28;;;27.70;43.10;;;;;;5056388;28;20611;-58
2021/05/08 11:31:27;;;;;;;5.47;3.13;;;27.70;43.00;;;;;;5072724;28;20076;-57
2021/05/08 11:34:03;;;;;;;4.32;3.33;;;27.80;43.10;;;;;;5070853;28;20040;-58
2021/05/08 11:36:29;;;;;;;4.82;4.00;;;27.90;43.20;;;;;;5074372;28;20504;-57
2021/05/08 11:39:14;;;;;;;6.03;3.80;;;27.90;43.20;;;;;;5074106;28;20040;-58
2021/05/08 11:41:40;;;;;;;8.00;4.10;;;27.90;43.10;;;;;;5051418;28;20068;-57
2021/05/08 11:44:07;;;;;;;6.57;3.78;;;28.00;43.20;;;;;;5074090;28;20029;-58
2021/05/08 11:46:34;;;;;;;7.03;3.38;;;28.00;43.10;;;;;;5073050;28;20032;-57
2021/05/08 11:49:00;;;;;;;4.18;3.10;;;28.10;43.10;;;;;;5074040;28;20044;-57
2021/05/08 11:51:27;;;;;;;6.57;4.00;;;28.10;43.00;;;;;;5073195;28;20056;-58
2021/05/08 11:54:13;;;;;;;4.38;3.47;;;28.20;43.10;;;;;;5073522;28;20048;-58
2021/05/08 11:56:39;;;;;;;8.05;3.35;;;28.20;42.90;;;;;;5071699;28;20045;-58
2021/05/08 11:59:07;;;;;;;4.78;3.25;;;28.20;42.70;;;;;;5073052;28;20853;-58
2021/05/08 12:01:34;;;;;;;9.50;3.70;;;28.30;42.70;;;;;;5075361;28;20048;-58
2021/05/08 12:04:02;;;;;;;5.40;3.50;;;28.30;42.70;;;;;;5087342;28;20482;-58
2021/05/08 12:06:29;;;;;;;9.27;3.60;;;28.30;42.50;;;;;;5057796;28;20565;-58
2021/05/08 12:08:56;;;;;;;4.88;3.35;;;28.30;42.30;;;;;;5076962;28;20052;-59
2021/05/08 12:11:23;;;;;;;7.85;3.47;;;28.30;42.40;;;;;;5057075;28;20063;-59
2021/05/08 12:13:50;;;;;;;9.48;2.90;;;28.30;42.30;;;;;;5075120;28;20039;-59
2021/05/08 12:16:17;;;;;;;4.80;3.08;;;28.30;42.30;;;;;;5078372;28;20048;-58
2021/05/08 12:18:43;;;;;;;7.97;3.60;;;28.40;42.30;;;;;;5074190;28;20082;-58
2021/05/08 12:21:14;;;;;;;11.40;3.15;;;28.30;42.10;;;;;;5055859;28;20041;-56
2021/05/08 12:23:40;;;;;;;8.73;3.17;;;28.30;41.90;;;;;;5072933;28;20037;-56
2021/05/08 12:26:16;;;;;;;4.22;3.03;;;28.30;42.10;;;;;;5071791;28;20062;-56
2021/05/08 12:28:45;;;;;;;6.57;3.03;;;28.40;42.10;;;;;;5072727;28;20425;-56
2021/05/08 12:31:33;;;;;;;6.35;3.03;;;28.30;41.90;;;;;;5074668;28;20056;-56
2021/05/08 12:34:07;;;;;;;10.93;3.53;;;28.30;41.80;;;;;;5073277;28;20056;-56
2021/05/08 12:36:35;;;;;;;9.73;3.25;;;28.40;42.00;;;;;;5072299;28;20052;-56
2021/05/08 12:39:23;;;;;;;8.50;3.03;;;28.40;42.20;;;;;;5069722;28;20039;-59
2021/05/08 12:41:57;;;;;;;13.20;3.83;;;28.30;42.00;;;;;;5070862;28;20036;-58
2021/05/08 12:44:39;;;;;;;6.47;3.10;;;28.40;41.90;;;;;;5064610;28;20044;-58